DLH4JW EDDM-EDDH
Flight info
| Callsign | DLH4JW |
|---|---|
| Flight time | N/A |
| Altitude | 36000 |
| Route | INPUD2N/26R INPUD Y102 UPALA M726 NARUS DCT ABGUS DCT DIRBO/N0358F230 T902 RARUP RARUP6A |
| Aircraft | A320/M-SDE3FGHIRWY/LB1 |
Departure
| Time | 2026-05-05 15:04 |
|---|---|
| Airport | Munich Airport (EDDM) |
Arrival
| Time | N/A |
|---|---|
| Airport | Hamburg Helmut Schmidt Airport (EDDH) |
| Time | Latitude | Longitude | Altitude | Speed | Heading |
|---|---|---|---|---|---|
| 2026-05-05 14:40 | 48.35713 | 11.79267 | 1486 ft | 0 kts | 263° |
| 2026-05-05 14:55 | 48.35713 | 11.79279 | 1473 ft | 4 kts | 263° |
| 2026-05-05 14:55 | 48.35717 | 11.79319 | 1485 ft | 4 kts | 263° |
| 2026-05-05 14:55 | 48.35719 | 11.79351 | 1473 ft | 4 kts | 265° |
| 2026-05-05 14:56 | 48.35717 | 11.79389 | 1472 ft | 4 kts | 297° |
| 2026-05-05 14:56 | 48.35701 | 11.79411 | 1473 ft | 3 kts | 353° |
| 2026-05-05 14:56 | 48.35683 | 11.79414 | 1474 ft | 0 kts | 353° |
| 2026-05-05 14:59 | 48.35690 | 11.79413 | 1477 ft | 4 kts | 353° |
| 2026-05-05 14:59 | 48.35738 | 11.79405 | 1478 ft | 10 kts | 353° |
| 2026-05-05 14:59 | 48.35832 | 11.79388 | 1475 ft | 17 kts | 353° |
| 2026-05-05 14:59 | 48.35890 | 11.79441 | 1475 ft | 6 kts | 97° |
| 2026-05-05 15:00 | 48.35923 | 11.79493 | 1476 ft | 13 kts | 34° |
| 2026-05-05 15:00 | 48.35987 | 11.79498 | 1486 ft | 15 kts | 352° |
| 2026-05-05 15:00 | 48.36128 | 11.79472 | 1478 ft | 16 kts | 353° |
| 2026-05-05 15:00 | 48.36220 | 11.79525 | 1485 ft | 15 kts | 77° |
| 2026-05-05 15:01 | 48.36229 | 11.79664 | 1485 ft | 12 kts | 84° |
| 2026-05-05 15:01 | 48.36238 | 11.79793 | 1473 ft | 15 kts | 84° |
| 2026-05-05 15:01 | 48.36253 | 11.79977 | 1479 ft | 20 kts | 83° |
| 2026-05-05 15:01 | 48.36270 | 11.80195 | 1485 ft | 20 kts | 84° |
| 2026-05-05 15:02 | 48.36283 | 11.80384 | 1479 ft | 16 kts | 83° |
| 2026-05-05 15:02 | 48.36324 | 11.80510 | 1481 ft | 12 kts | 18° |
| 2026-05-05 15:02 | 48.36377 | 11.80446 | 1483 ft | 11 kts | 292° |
| 2026-05-05 15:02 | 48.36408 | 11.80339 | 1485 ft | 12 kts | 294° |
| 2026-05-05 15:03 | 48.36445 | 11.80213 | 1478 ft | 16 kts | 294° |
| 2026-05-05 15:03 | 48.36497 | 11.80033 | 1475 ft | 22 kts | 293° |
| 2026-05-05 15:03 | 48.36511 | 11.79809 | 1485 ft | 22 kts | 264° |
| 2026-05-05 15:03 | 48.36486 | 11.79474 | 1485 ft | 60 kts | 263° |
| 2026-05-05 15:04 | 48.36409 | 11.78498 | 1475 ft | 126 kts | 263° |
| 2026-05-05 15:04 | 48.36295 | 11.76984 | 1791 ft | 154 kts | 264° |
| 2026-05-05 15:04 | 48.36174 | 11.75376 | 2568 ft | 155 kts | 264° |
| 2026-05-05 15:04 | 48.36059 | 11.73769 | 3433 ft | 153 kts | 264° |
| 2026-05-05 15:05 | 48.35814 | 11.70465 | 4615 ft | 177 kts | 263° |
| 2026-05-05 15:05 | 48.35676 | 11.68503 | 5024 ft | 200 kts | 267° |
| 2026-05-05 15:05 | 48.36090 | 11.66421 | 5366 ft | 226 kts | 308° |
| 2026-05-05 15:06 | 48.37453 | 11.65037 | 5836 ft | 252 kts | 339° |
| 2026-05-05 15:06 | 48.39227 | 11.64332 | 6417 ft | 273 kts | 349° |
| 2026-05-05 15:06 | 48.41135 | 11.63895 | 7280 ft | 281 kts | 352° |
| 2026-05-05 15:06 | 48.43099 | 11.63505 | 8199 ft | 288 kts | 352° |
| 2026-05-05 15:07 | 48.45104 | 11.63076 | 9121 ft | 294 kts | 350° |
| 2026-05-05 15:07 | 48.47148 | 11.62585 | 10019 ft | 301 kts | 349° |
| 2026-05-05 15:07 | 48.49229 | 11.62035 | 10916 ft | 306 kts | 348° |
| 2026-05-05 15:07 | 48.51340 | 11.61439 | 11751 ft | 313 kts | 348° |
| 2026-05-05 15:08 | 48.53487 | 11.60811 | 12689 ft | 315 kts | 348° |
| 2026-05-05 15:08 | 48.55659 | 11.60167 | 13520 ft | 321 kts | 348° |
| 2026-05-05 15:08 | 48.57838 | 11.59311 | 14218 ft | 330 kts | 339° |
| 2026-05-05 15:08 | 48.60036 | 11.58062 | 14540 ft | 353 kts | 338° |
| 2026-05-05 15:09 | 48.62369 | 11.56706 | 15104 ft | 364 kts | 338° |
| 2026-05-05 15:09 | 48.64756 | 11.55311 | 15801 ft | 370 kts | 337° |
| 2026-05-05 15:09 | 48.67178 | 11.53893 | 16527 ft | 375 kts | 337° |
| 2026-05-05 15:09 | 48.69619 | 11.52467 | 17259 ft | 379 kts | 337° |
| 2026-05-05 15:10 | 48.72101 | 11.51027 | 17977 ft | 384 kts | 336° |
| 2026-05-05 15:10 | 48.74609 | 11.49573 | 18583 ft | 388 kts | 337° |
| 2026-05-05 15:10 | 48.77143 | 11.48102 | 19183 ft | 392 kts | 337° |
| 2026-05-05 15:10 | 48.79707 | 11.46612 | 19791 ft | 396 kts | 337° |
| 2026-05-05 15:11 | 48.82287 | 11.45109 | 20404 ft | 400 kts | 337° |
| 2026-05-05 15:11 | 48.84898 | 11.43588 | 21018 ft | 403 kts | 337° |
| 2026-05-05 15:11 | 48.87533 | 11.42053 | 21625 ft | 407 kts | 337° |
| 2026-05-05 15:11 | 48.90194 | 11.40504 | 22201 ft | 411 kts | 338° |
| 2026-05-05 15:12 | 48.92876 | 11.38940 | 22802 ft | 415 kts | 338° |
| 2026-05-05 15:12 | 48.95585 | 11.37358 | 23413 ft | 419 kts | 338° |
| 2026-05-05 15:12 | 48.98322 | 11.35759 | 23887 ft | 422 kts | 338° |
| 2026-05-05 15:12 | 49.01049 | 11.34159 | 24391 ft | 425 kts | 337° |
| 2026-05-05 15:13 | 49.03808 | 11.32537 | 24889 ft | 429 kts | 337° |
| 2026-05-05 15:13 | 49.06606 | 11.30892 | 25362 ft | 432 kts | 337° |
| 2026-05-05 15:13 | 49.09428 | 11.29236 | 25820 ft | 435 kts | 337° |
| 2026-05-05 15:13 | 49.12259 | 11.27574 | 26265 ft | 438 kts | 337° |
| 2026-05-05 15:14 | 49.15110 | 11.25896 | 26698 ft | 441 kts | 337° |
| 2026-05-05 15:14 | 49.17988 | 11.24202 | 27135 ft | 444 kts | 338° |
| 2026-05-05 15:14 | 49.20958 | 11.22852 | 27553 ft | 449 kts | 347° |
| 2026-05-05 15:14 | 49.24064 | 11.22213 | 27998 ft | 452 kts | 356° |
| 2026-05-05 15:15 | 49.27225 | 11.22190 | 28415 ft | 455 kts | 360° |
| 2026-05-05 15:15 | 49.30404 | 11.22229 | 28829 ft | 458 kts | 360° |
| 2026-05-05 15:15 | 49.33601 | 11.22260 | 29234 ft | 461 kts | 360° |
| 2026-05-05 15:15 | 49.36823 | 11.22284 | 29637 ft | 464 kts | 359° |
| 2026-05-05 15:16 | 49.40063 | 11.22307 | 30003 ft | 467 kts | 359° |
| 2026-05-05 15:16 | 49.43327 | 11.22331 | 30395 ft | 470 kts | 359° |
| 2026-05-05 15:16 | 49.46611 | 11.22351 | 30656 ft | 474 kts | 359° |
| 2026-05-05 15:16 | 49.49924 | 11.22372 | 30953 ft | 477 kts | 359° |
| 2026-05-05 15:17 | 49.53259 | 11.22398 | 31267 ft | 480 kts | 359° |
| 2026-05-05 15:17 | 49.56604 | 11.22427 | 31583 ft | 482 kts | 359° |
| 2026-05-05 15:17 | 49.59960 | 11.22444 | 32022 ft | 481 kts | 359° |
| 2026-05-05 15:17 | 49.63303 | 11.22451 | 32472 ft | 480 kts | 359° |
| 2026-05-05 15:18 | 49.66594 | 11.22452 | 32922 ft | 479 kts | 358° |
| 2026-05-05 15:18 | 49.69919 | 11.22452 | 33401 ft | 477 kts | 358° |
| 2026-05-05 15:18 | 49.73234 | 11.22454 | 33847 ft | 476 kts | 358° |
| 2026-05-05 15:18 | 49.76546 | 11.22457 | 34244 ft | 475 kts | 358° |
| 2026-05-05 15:19 | 49.79843 | 11.22467 | 34636 ft | 473 kts | 358° |
| 2026-05-05 15:19 | 49.83115 | 11.22491 | 35017 ft | 472 kts | 358° |
| 2026-05-05 15:19 | 49.86395 | 11.22514 | 35385 ft | 471 kts | 358° |
| 2026-05-05 15:19 | 49.89664 | 11.22536 | 35708 ft | 470 kts | 358° |
| 2026-05-05 15:20 | 49.92920 | 11.22558 | 35782 ft | 464 kts | 358° |
| 2026-05-05 15:20 | 49.99314 | 11.22600 | 35789 ft | 458 kts | 358° |
| 2026-05-05 15:21 | 50.05674 | 11.22631 | 35790 ft | 457 kts | 358° |
| 2026-05-05 15:21 | 50.12042 | 11.22661 | 35796 ft | 458 kts | 357° |
| 2026-05-05 15:22 | 50.18417 | 11.22698 | 35799 ft | 458 kts | 357° |
| 2026-05-05 15:22 | 50.24794 | 11.22730 | 35806 ft | 458 kts | 357° |
| 2026-05-05 15:23 | 50.31162 | 11.22767 | 35801 ft | 458 kts | 357° |
| 2026-05-05 15:23 | 50.37518 | 11.22590 | 35806 ft | 454 kts | 351° |
| 2026-05-05 15:24 | 50.42738 | 11.21791 | 35797 ft | 454 kts | 351° |
| 2026-05-05 15:24 | 50.50064 | 11.20699 | 35800 ft | 454 kts | 351° |
| 2026-05-05 15:25 | 50.56352 | 11.19757 | 35813 ft | 455 kts | 351° |
| 2026-05-05 15:25 | 50.61642 | 11.18955 | 35810 ft | 455 kts | 351° |
| 2026-05-05 15:26 | 50.67908 | 11.18003 | 35809 ft | 456 kts | 352° |
| 2026-05-05 15:26 | 50.74254 | 11.17260 | 35818 ft | 457 kts | 353° |
| 2026-05-05 15:27 | 50.80607 | 11.16682 | 35834 ft | 458 kts | 353° |
| 2026-05-05 15:27 | 50.86957 | 11.16068 | 35839 ft | 458 kts | 353° |
| 2026-05-05 15:28 | 50.93314 | 11.15396 | 35844 ft | 457 kts | 353° |
| 2026-05-05 15:28 | 50.99656 | 11.14706 | 35844 ft | 457 kts | 353° |
| 2026-05-05 15:29 | 51.06013 | 11.14029 | 35852 ft | 457 kts | 352° |
| 2026-05-05 15:29 | 51.12351 | 11.13365 | 35851 ft | 456 kts | 352° |
| 2026-05-05 15:30 | 51.18685 | 11.12700 | 35850 ft | 456 kts | 352° |
| 2026-05-05 15:30 | 51.24967 | 11.12025 | 35845 ft | 455 kts | 352° |
| 2026-05-05 15:31 | 51.31257 | 11.11101 | 35857 ft | 454 kts | 349° |
| 2026-05-05 15:31 | 51.37517 | 11.09925 | 35852 ft | 453 kts | 348° |
| 2026-05-05 15:32 | 51.43777 | 11.08734 | 35862 ft | 453 kts | 349° |
| 2026-05-05 15:32 | 51.50051 | 11.07609 | 35850 ft | 454 kts | 350° |
| 2026-05-05 15:33 | 51.56344 | 11.06498 | 35853 ft | 454 kts | 349° |
| 2026-05-05 15:33 | 51.62624 | 11.05390 | 35856 ft | 454 kts | 349° |
| 2026-05-05 15:34 | 51.68909 | 11.04263 | 35851 ft | 454 kts | 349° |
| 2026-05-05 15:34 | 51.75192 | 11.03139 | 35855 ft | 454 kts | 349° |
| 2026-05-05 15:35 | 51.81474 | 11.02010 | 35875 ft | 454 kts | 348° |
| 2026-05-05 15:35 | 51.87702 | 11.00884 | 35881 ft | 453 kts | 348° |
| 2026-05-05 15:36 | 51.93978 | 10.99748 | 35881 ft | 453 kts | 348° |
| 2026-05-05 15:36 | 52.00244 | 10.98613 | 35884 ft | 453 kts | 348° |
| 2026-05-05 15:37 | 52.06507 | 10.97479 | 35897 ft | 452 kts | 348° |
| 2026-05-05 15:37 | 52.12743 | 10.96345 | 35897 ft | 451 kts | 348° |
| 2026-05-05 15:38 | 52.18984 | 10.95203 | 35894 ft | 450 kts | 348° |
| 2026-05-05 15:38 | 52.25205 | 10.94053 | 35857 ft | 451 kts | 348° |
| 2026-05-05 15:38 | 52.28322 | 10.93476 | 35620 ft | 449 kts | 347° |
| 2026-05-05 15:39 | 52.31412 | 10.92907 | 35269 ft | 446 kts | 347° |
| 2026-05-05 15:39 | 52.34494 | 10.92344 | 34698 ft | 444 kts | 347° |
| 2026-05-05 15:39 | 52.37559 | 10.91784 | 34132 ft | 443 kts | 347° |
| 2026-05-05 15:39 | 52.40621 | 10.91223 | 33507 ft | 442 kts | 347° |
| 2026-05-05 15:40 | 52.43660 | 10.90666 | 32945 ft | 439 kts | 347° |
| 2026-05-05 15:40 | 52.46689 | 10.90107 | 32382 ft | 436 kts | 347° |
| 2026-05-05 15:40 | 52.49691 | 10.89550 | 31824 ft | 433 kts | 348° |
| 2026-05-05 15:40 | 52.52681 | 10.88993 | 31282 ft | 430 kts | 347° |
| 2026-05-05 15:41 | 52.55635 | 10.88444 | 30733 ft | 427 kts | 348° |
| 2026-05-05 15:41 | 52.58586 | 10.87898 | 30194 ft | 425 kts | 348° |
| 2026-05-05 15:41 | 52.61505 | 10.87354 | 29615 ft | 422 kts | 348° |
| 2026-05-05 15:41 | 52.64411 | 10.86810 | 29109 ft | 416 kts | 348° |
| 2026-05-05 15:42 | 52.67274 | 10.86273 | 28620 ft | 411 kts | 348° |
| 2026-05-05 15:42 | 52.70057 | 10.85752 | 28138 ft | 406 kts | 348° |
| 2026-05-05 15:42 | 52.72848 | 10.85230 | 27652 ft | 401 kts | 348° |
| 2026-05-05 15:42 | 52.75609 | 10.84710 | 27194 ft | 397 kts | 348° |
| 2026-05-05 15:43 | 52.78333 | 10.84191 | 26722 ft | 392 kts | 348° |
| 2026-05-05 15:43 | 52.81033 | 10.83680 | 26257 ft | 388 kts | 348° |
| 2026-05-05 15:43 | 52.83713 | 10.83175 | 25802 ft | 385 kts | 348° |
| 2026-05-05 15:43 | 52.86352 | 10.82674 | 25332 ft | 382 kts | 349° |
| 2026-05-05 15:44 | 52.88995 | 10.82169 | 24850 ft | 380 kts | 349° |
| 2026-05-05 15:44 | 52.91614 | 10.81671 | 24355 ft | 379 kts | 349° |
| 2026-05-05 15:44 | 52.94229 | 10.81178 | 23857 ft | 377 kts | 349° |
| 2026-05-05 15:44 | 52.96826 | 10.80689 | 23340 ft | 376 kts | 349° |
| 2026-05-05 15:45 | 52.99424 | 10.80200 | 22786 ft | 374 kts | 349° |
| 2026-05-05 15:45 | 53.01999 | 10.79713 | 22291 ft | 371 kts | 350° |
| 2026-05-05 15:45 | 53.04557 | 10.79225 | 21794 ft | 369 kts | 350° |
| 2026-05-05 15:45 | 53.07096 | 10.78738 | 21311 ft | 367 kts | 350° |
| 2026-05-05 15:46 | 53.09632 | 10.78253 | 20823 ft | 365 kts | 350° |
| 2026-05-05 15:46 | 53.12144 | 10.77776 | 20351 ft | 363 kts | 351° |
| 2026-05-05 15:46 | 53.14651 | 10.77298 | 19872 ft | 361 kts | 351° |
| 2026-05-05 15:46 | 53.17080 | 10.76831 | 19420 ft | 360 kts | 351° |
| 2026-05-05 15:47 | 53.19562 | 10.76354 | 18945 ft | 359 kts | 351° |
| 2026-05-05 15:47 | 53.21209 | 10.76038 | 18631 ft | 358 kts | 351° |
| 2026-05-05 15:47 | 53.24506 | 10.75405 | 17990 ft | 356 kts | 352° |
| 2026-05-05 15:47 | 53.26960 | 10.74931 | 17516 ft | 353 kts | 351° |
| 2026-05-05 15:48 | 53.29390 | 10.74461 | 17060 ft | 350 kts | 351° |
| 2026-05-05 15:48 | 53.31795 | 10.73996 | 16618 ft | 347 kts | 351° |
| 2026-05-05 15:48 | 53.34190 | 10.73534 | 16186 ft | 344 kts | 351° |
| 2026-05-05 15:48 | 53.36560 | 10.73078 | 15753 ft | 342 kts | 351° |
| 2026-05-05 15:49 | 53.38922 | 10.72627 | 15311 ft | 340 kts | 351° |
| 2026-05-05 15:49 | 53.41264 | 10.72176 | 14898 ft | 338 kts | 351° |
| 2026-05-05 15:49 | 53.43596 | 10.71722 | 14472 ft | 336 kts | 351° |
| 2026-05-05 15:49 | 53.45913 | 10.71268 | 14044 ft | 335 kts | 351° |
| 2026-05-05 15:50 | 53.48226 | 10.70814 | 13616 ft | 334 kts | 351° |
| 2026-05-05 15:50 | 53.50521 | 10.70364 | 13172 ft | 331 kts | 351° |
| 2026-05-05 15:50 | 53.52797 | 10.69920 | 12753 ft | 328 kts | 351° |
| 2026-05-05 15:50 | 53.55031 | 10.69486 | 12321 ft | 326 kts | 351° |
| 2026-05-05 15:51 | 53.57284 | 10.69045 | 11887 ft | 324 kts | 350° |
| 2026-05-05 15:51 | 53.59416 | 10.68031 | 11466 ft | 316 kts | 329° |
| 2026-05-05 15:51 | 53.61127 | 10.65738 | 11044 ft | 309 kts | 307° |
| 2026-05-05 15:51 | 53.62125 | 10.62671 | 10763 ft | 298 kts | 285° |
| 2026-05-05 15:52 | 53.62382 | 10.59258 | 10652 ft | 287 kts | 265° |
| 2026-05-05 15:52 | 53.61970 | 10.56040 | 10513 ft | 285 kts | 252° |
| 2026-05-05 15:52 | 53.61373 | 10.52872 | 10369 ft | 284 kts | 252° |
| 2026-05-05 15:52 | 53.60760 | 10.49657 | 10222 ft | 284 kts | 252° |
| 2026-05-05 15:53 | 53.60164 | 10.46545 | 10071 ft | 283 kts | 252° |
| 2026-05-05 15:53 | 53.59564 | 10.43411 | 9885 ft | 279 kts | 252° |
| 2026-05-05 15:53 | 53.59001 | 10.40473 | 9778 ft | 275 kts | 252° |
| 2026-05-05 15:53 | 53.58415 | 10.37407 | 9645 ft | 275 kts | 252° |
| 2026-05-05 15:54 | 53.57829 | 10.34347 | 9497 ft | 275 kts | 252° |
| 2026-05-05 15:54 | 53.57236 | 10.31256 | 9359 ft | 275 kts | 252° |
| 2026-05-05 15:54 | 53.56653 | 10.28240 | 9229 ft | 274 kts | 252° |
| 2026-05-05 15:54 | 53.56065 | 10.25192 | 9085 ft | 274 kts | 252° |
| 2026-05-05 15:55 | 53.55477 | 10.22148 | 8947 ft | 274 kts | 252° |
| 2026-05-05 15:55 | 53.54886 | 10.19104 | 8809 ft | 274 kts | 252° |
| 2026-05-05 15:55 | 53.54295 | 10.16056 | 8673 ft | 274 kts | 252° |
| 2026-05-05 15:55 | 53.53706 | 10.13016 | 8533 ft | 273 kts | 252° |
| 2026-05-05 15:56 | 53.53116 | 10.09992 | 8394 ft | 273 kts | 252° |
| 2026-05-05 15:56 | 53.52524 | 10.06961 | 8253 ft | 272 kts | 252° |
| 2026-05-05 15:56 | 53.51934 | 10.03951 | 8129 ft | 267 kts | 252° |
| 2026-05-05 15:56 | 53.51380 | 10.01121 | 7986 ft | 255 kts | 252° |
| 2026-05-05 15:57 | 53.50840 | 9.98357 | 7847 ft | 244 kts | 252° |
| 2026-05-05 15:57 | 53.50305 | 9.95683 | 7651 ft | 239 kts | 248° |
| 2026-05-05 15:57 | 53.49476 | 9.93276 | 7539 ft | 238 kts | 232° |
| 2026-05-05 15:57 | 53.48412 | 9.91153 | 7410 ft | 238 kts | 230° |
| 2026-05-05 15:58 | 53.47348 | 9.89026 | 7285 ft | 236 kts | 231° |
| 2026-05-05 15:58 | 53.46298 | 9.86918 | 7167 ft | 236 kts | 231° |
| 2026-05-05 15:58 | 53.45243 | 9.84798 | 7042 ft | 238 kts | 231° |
| 2026-05-05 15:58 | 53.44188 | 9.82677 | 6917 ft | 237 kts | 231° |
| 2026-05-05 15:59 | 53.43126 | 9.80549 | 6782 ft | 238 kts | 231° |
| 2026-05-05 15:59 | 53.42065 | 9.78426 | 6598 ft | 238 kts | 231° |
| 2026-05-05 15:59 | 53.41008 | 9.76311 | 6372 ft | 235 kts | 230° |
| 2026-05-05 15:59 | 53.39964 | 9.74227 | 6118 ft | 231 kts | 231° |
| 2026-05-05 16:00 | 53.38967 | 9.72138 | 5745 ft | 228 kts | 240° |
| 2026-05-05 16:00 | 53.38516 | 9.69652 | 5331 ft | 223 kts | 270° |
| 2026-05-05 16:00 | 53.38857 | 9.67158 | 4933 ft | 222 kts | 299° |
| 2026-05-05 16:00 | 53.39868 | 9.65228 | 4534 ft | 223 kts | 321° |
| 2026-05-05 16:01 | 53.41140 | 9.63722 | 4100 ft | 226 kts | 337° |
| 2026-05-05 16:01 | 53.42647 | 9.63042 | 3705 ft | 226 kts | 356° |
| 2026-05-05 16:01 | 53.44219 | 9.63252 | 3315 ft | 228 kts | 16° |
| 2026-05-05 16:01 | 53.45650 | 9.64350 | 3009 ft | 225 kts | 36° |
| 2026-05-05 16:02 | 53.46746 | 9.66098 | 2999 ft | 214 kts | 50° |
| 2026-05-05 16:02 | 53.47690 | 9.67988 | 3003 ft | 210 kts | 49° |
| 2026-05-05 16:02 | 53.48625 | 9.69851 | 3006 ft | 209 kts | 49° |
| 2026-05-05 16:02 | 53.49545 | 9.71689 | 3008 ft | 209 kts | 49° |
| 2026-05-05 16:03 | 53.50466 | 9.73532 | 3011 ft | 208 kts | 49° |
| 2026-05-05 16:03 | 53.51414 | 9.75429 | 3010 ft | 209 kts | 49° |
| 2026-05-05 16:03 | 53.52315 | 9.77234 | 2970 ft | 199 kts | 49° |
| 2026-05-05 16:03 | 53.53208 | 9.79026 | 2776 ft | 197 kts | 50° |
| 2026-05-05 16:04 | 53.54084 | 9.80783 | 2536 ft | 196 kts | 50° |
| 2026-05-05 16:04 | 53.54930 | 9.82482 | 2293 ft | 187 kts | 50° |
| 2026-05-05 16:04 | 53.55735 | 9.84100 | 2033 ft | 174 kts | 50° |
| 2026-05-05 16:04 | 53.56487 | 9.85613 | 1791 ft | 163 kts | 50° |
| 2026-05-05 16:05 | 53.57199 | 9.87044 | 1576 ft | 156 kts | 50° |
| 2026-05-05 16:05 | 53.57878 | 9.88411 | 1367 ft | 148 kts | 51° |
| 2026-05-05 16:05 | 53.58517 | 9.89697 | 1183 ft | 137 kts | 51° |
| 2026-05-05 16:05 | 53.59105 | 9.90883 | 977 ft | 128 kts | 51° |
| 2026-05-05 16:06 | 53.59668 | 9.92018 | 805 ft | 125 kts | 50° |
| 2026-05-05 16:06 | 53.60219 | 9.93129 | 643 ft | 122 kts | 50° |
| 2026-05-05 16:06 | 53.60765 | 9.94230 | 470 ft | 123 kts | 50° |
| 2026-05-05 16:06 | 53.61134 | 9.94975 | 365 ft | 124 kts | 51° |
| 2026-05-05 16:07 | 53.61839 | 9.96399 | 144 ft | 123 kts | 50° |
| 2026-05-05 16:07 | 53.62143 | 9.97013 | 49 ft | 121 kts | 51° |